Wetterdaten: Woche 21.10.19 - 27.10.19 (KW43)
Datum Zeit Temp. I. Temp. A. Feuchte I. Feuchte A. Luftdruck Regen Wind Richtung Sonnenschein UV Solar Taupunkt Windchill Windben
21.10.2019 00:00 24,6 C 10,9 C 60 % 93 % 1012,5 hPa 0,0 l/m 0,7 km/h (0 Bft) NO 0,00 h 0,0 UV-I 0 W/m 9,8 C 10,9 C 3,3 km/h (1 Bft)
21.10.2019 01:00 24,6 C 10,7 C 61 % 93 % 1012,6 hPa 0,0 l/m 0,0 km/h (0 Bft) N 0,00 h 0,0 UV-I 0 W/m 9,7 C 10,7 C 0,1 km/h (0 Bft)
21.10.2019 02:00 24,6 C 10,4 C 61 % 93 % 1012,7 hPa 0,0 l/m 0,0 km/h (0 Bft) N 0,00 h 0,0 UV-I 0 W/m 9,3 C 10,4 C 0,0 km/h (0 Bft)
21.10.2019 03:00 24,7 C 9,3 C 62 % 93 % 1013,0 hPa 0,0 l/m 0,0 km/h (0 Bft) N 0,00 h 0,0 UV-I 0 W/m 8,2 C 9,3 C 0,0 km/h (0 Bft)
21.10.2019 04:00 24,7 C 8,6 C 62 % 93 % 1013,6 hPa 0,0 l/m 0,4 km/h (0 Bft) N-NW 0,00 h 0,0 UV-I 0 W/m 7,6 C 8,6 C 2,2 km/h (1 Bft)
21.10.2019 05:00 24,6 C 8,1 C 62 % 94 % 1014,4 hPa 0,0 l/m 0,0 km/h (0 Bft) N 0,00 h 0,0 UV-I 0 W/m 7,2 C 8,1 C 0,0 km/h (0 Bft)
21.10.2019 06:00 24,5 C 7,5 C 62 % 94 % 1014,6 hPa 0,0 l/m 0,0 km/h (0 Bft) N 0,00 h 0,0 UV-I 0 W/m 6,6 C 7,5 C 0,0 km/h (0 Bft)
21.10.2019 07:00 24,5 C 7,1 C 61 % 95 % 1015,4 hPa 0,0 l/m 0,1 km/h (0 Bft) NW 0,00 h 0,0 UV-I 10 W/m 6,3 C 7,1 C 0,5 km/h (0 Bft)
21.10.2019 08:00 24,0 C 6,9 C 51 % 95 % 1016,4 hPa 0,0 l/m 0,0 km/h (0 Bft) N 0,00 h 0,0 UV-I 55 W/m 6,2 C 6,9 C 0,0 km/h (0 Bft)
21.10.2019 09:00 23,8 C 9,4 C 52 % 97 % 1017,3 hPa 0,0 l/m 1,5 km/h (1 Bft) W 0,62 h 0,7 UV-I 216 W/m 8,9 C 9,4 C 3,1 km/h (1 Bft)
21.10.2019 10:00 23,9 C 12,6 C 54 % 94 % 1018,3 hPa 0,0 l/m 0,1 km/h (0 Bft) SO 1,00 h 1,1 UV-I 248 W/m 11,6 C 12,6 C 0,3 km/h (0 Bft)
21.10.2019 11:00 23,9 C 13,4 C 54 % 90 % 1018,6 hPa 0,0 l/m 0,5 km/h (0 Bft) SO 1,00 h 1,4 UV-I 254 W/m 11,8 C 13,4 C 1,0 km/h (0 Bft)
21.10.2019 12:00 23,9 C 15,5 C 55 % 83 % 1018,7 hPa 0,0 l/m 1,0 km/h (0 Bft) W 0,68 h 1,3 UV-I 196 W/m 12,7 C 15,5 C 2,0 km/h (1 Bft)
21.10.2019 13:00 24,0 C 15,7 C 55 % 83 % 1019,0 hPa 0,0 l/m 0,9 km/h (0 Bft) SW 0,93 h 1,2 UV-I 173 W/m 12,7 C 15,7 C 1,6 km/h (1 Bft)
21.10.2019 14:00 24,1 C 16,7 C 55 % 79 % 1019,3 hPa 0,0 l/m 2,7 km/h (1 Bft) W 1,00 h 1,3 UV-I 250 W/m 12,9 C 16,6 C 4,7 km/h (1 Bft)
21.10.2019 15:00 23,9 C 18,9 C 55 % 72 % 1019,5 hPa 0,0 l/m 1,3 km/h (1 Bft) N-NW 1,00 h 1,1 UV-I 279 W/m 13,8 C 18,9 C 3,4 km/h (1 Bft)
21.10.2019 16:00 23,9 C 19,3 C 56 % 68 % 1019,3 hPa 0,0 l/m 3,0 km/h (1 Bft) N-NW 0,22 h 0,6 UV-I 121 W/m 13,3 C 19,3 C 5,4 km/h (1 Bft)
21.10.2019 17:00 24,0 C 18,7 C 59 % 70 % 1019,6 hPa 0,0 l/m 2,1 km/h (1 Bft) N-NW 0,00 h 0,0 UV-I 48 W/m 13,1 C 18,7 C 3,5 km/h (1 Bft)
21.10.2019 18:00 24,0 C 16,8 C 58 % 76 % 1020,0 hPa 0,0 l/m 0,0 km/h (0 Bft) N 0,00 h 0,0 UV-I 6 W/m 12,5 C 16,8 C 0,1 km/h (0 Bft)
21.10.2019 19:00 23,9 C 14,6 C 58 % 82 % 1020,5 hPa 0,0 l/m 0,0 km/h (0 Bft) N 0,00 h 0,0 UV-I 0 W/m 11,6 C 14,6 C 0,0 km/h (0 Bft)
21.10.2019 20:00 24,2 C 12,9 C 59 % 86 % 1020,9 hPa 0,0 l/m 0,0 km/h (0 Bft) N 0,00 h 0,0 UV-I 0 W/m 10,7 C 12,9 C 0,0 km/h (0 Bft)
21.10.2019 21:00 24,1 C 11,7 C 59 % 90 % 1021,2 hPa 0,0 l/m 0,0 km/h (0 Bft) N 0,00 h 0,0 UV-I 0 W/m 10,1 C 11,7 C 0,0 km/h (0 Bft)
21.10.2019 22:00 24,2 C 10,7 C 60 % 91 % 1021,3 hPa 0,0 l/m 0,0 km/h (0 Bft) N 0,00 h 0,0 UV-I 0 W/m 9,3 C 10,7 C 0,0 km/h (0 Bft)
21.10.2019 23:00 24,3 C 9,9 C 60 % 92 % 1021,6 hPa 0,0 l/m 0,0 km/h (0 Bft) N 0,00 h 0,0 UV-I 0 W/m 8,6 C 9,9 C 0,0 km/h (0 Bft)
22.10.2019 00:00 24,4 C 9,3 C 62 % 93 % 1021,9 hPa 0,0 l/m 0,0 km/h (0 Bft) N 0,00 h 0,0 UV-I 0 W/m 8,2 C 9,3 C 0,0 km/h (0 Bft)
22.10.2019 01:00 24,4 C 8,8 C 62 % 93 % 1022,0 hPa 0,0 l/m 0,0 km/h (0 Bft) N 0,00 h 0,0 UV-I 0 W/m 7,7 C 8,8 C 0,0 km/h (0 Bft)
22.10.2019 02:00 24,4 C 8,3 C 62 % 94 % 1022,4 hPa 0,0 l/m 0,0 km/h (0 Bft) N 0,00 h 0,0 UV-I 0 W/m 7,4 C 8,3 C 0,0 km/h (0 Bft)
22.10.2019 03:00 24,4 C 8,3 C 63 % 95 % 1022,0 hPa 0,0 l/m 0,0 km/h (0 Bft) N 0,00 h 0,0 UV-I 0 W/m 7,5 C 8,3 C 0,0 km/h (0 Bft)
22.10.2019 04:00 24,3 C 8,1 C 63 % 95 % 1022,0 hPa 0,0 l/m 0,0 km/h (0 Bft) N 0,00 h 0,0 UV-I 0 W/m 7,4 C 8,1 C 0,0 km/h (0 Bft)
22.10.2019 05:00 24,3 C 7,6 C 62 % 95 % 1022,2 hPa 0,0 l/m 0,0 km/h (0 Bft) N 0,00 h 0,0 UV-I 0 W/m 6,8 C 7,6 C 0,0 km/h (0 Bft)
22.10.2019 06:00 24,3 C 7,3 C 62 % 95 % 1022,9 hPa 0,0 l/m 0,0 km/h (0 Bft) N 0,00 h 0,0 UV-I 0 W/m 6,6 C 7,3 C 0,0 km/h (0 Bft)
22.10.2019 07:00 24,3 C 6,9 C 61 % 95 % 1023,0 hPa 0,0 l/m 0,0 km/h (0 Bft) N 0,00 h 0,0 UV-I 10 W/m 6,1 C 6,9 C 0,0 km/h (0 Bft)
22.10.2019 08:00 23,9 C 6,8 C 53 % 95 % 1022,9 hPa 0,0 l/m 0,0 km/h (0 Bft) N 0,00 h 0,0 UV-I 36 W/m 6,1 C 6,8 C 0,0 km/h (0 Bft)
22.10.2019 09:00 23,7 C 9,3 C 53 % 97 % 1023,4 hPa 0,0 l/m 0,3 km/h (0 Bft) W-NW 0,43 h 0,6 UV-I 158 W/m 8,8 C 9,3 C 0,6 km/h (0 Bft)
22.10.2019 10:00 23,7 C 13,4 C 54 % 96 % 1023,5 hPa 0,0 l/m 1,2 km/h (1 Bft) N-NW 1,00 h 1,1 UV-I 242 W/m 12,7 C 13,3 C 2,4 km/h (1 Bft)
22.10.2019 11:00 23,8 C 15,5 C 56 % 86 % 1023,6 hPa 0,0 l/m 2,3 km/h (1 Bft) N-NW 0,93 h 1,5 UV-I 283 W/m 13,1 C 15,4 C 4,7 km/h (1 Bft)
22.10.2019 12:00 23,8 C 18,1 C 56 % 76 % 1023,3 hPa 0,0 l/m 2,0 km/h (1 Bft) N-NW 1,00 h 1,8 UV-I 348 W/m 13,8 C 18,1 C 4,4 km/h (1 Bft)
22.10.2019 13:00 23,8 C 18,2 C 56 % 73 % 1023,3 hPa 0,0 l/m 3,8 km/h (1 Bft) NW 1,00 h 1,4 UV-I 228 W/m 13,3 C 18,2 C 7,4 km/h (2 Bft)
22.10.2019 14:00 23,8 C 18,3 C 57 % 73 % 1023,0 hPa 0,0 l/m 3,5 km/h (1 Bft) N-NW 1,00 h 1,4 UV-I 264 W/m 13,3 C 18,3 C 6,5 km/h (2 Bft)
22.10.2019 15:00 23,8 C 18,6 C 58 % 72 % 1022,4 hPa 0,0 l/m 1,1 km/h (0 Bft) N 0,90 h 0,9 UV-I 178 W/m 13,5 C 18,6 C 2,5 km/h (1 Bft)
22.10.2019 16:00 23,8 C 18,4 C 58 % 73 % 1021,8 hPa 0,0 l/m 0,5 km/h (0 Bft) N 0,00 h 0,6 UV-I 101 W/m 13,4 C 18,4 C 1,1 km/h (0 Bft)
22.10.2019 17:00 23,8 C 17,5 C 58 % 76 % 1022,1 hPa 0,0 l/m 0,0 km/h (0 Bft) N 0,00 h 0,0 UV-I 30 W/m 13,2 C 17,5 C 0,0 km/h (0 Bft)
22.10.2019 18:00 23,8 C 15,9 C 58 % 82 % 1022,5 hPa 0,0 l/m 0,0 km/h (0 Bft) N 0,00 h 0,0 UV-I 5 W/m 12,8 C 15,9 C 0,0 km/h (0 Bft)
22.10.2019 19:00 23,8 C 14,2 C 59 % 85 % 1022,6 hPa 0,0 l/m 0,0 km/h (0 Bft) N 0,00 h 0,0 UV-I 0 W/m 11,7 C 14,2 C 0,0 km/h (0 Bft)
22.10.2019 20:00 23,9 C 12,5 C 60 % 87 % 1022,7 hPa 0,0 l/m 0,0 km/h (0 Bft) N 0,00 h 0,0 UV-I 0 W/m 10,4 C 12,5 C 0,0 km/h (0 Bft)
22.10.2019 21:00 23,9 C 11,2 C 60 % 89 % 1022,6 hPa 0,0 l/m 0,0 km/h (0 Bft) N 0,00 h 0,0 UV-I 0 W/m 9,4 C 11,2 C 0,0 km/h (0 Bft)
22.10.2019 22:00 24,0 C 10,0 C 60 % 90 % 1022,4 hPa 0,0 l/m 0,0 km/h (0 Bft) N 0,00 h 0,0 UV-I 0 W/m 8,5 C 10,0 C 0,0 km/h (0 Bft)
22.10.2019 23:00 24,1 C 9,7 C 61 % 93 % 1022,2 hPa 0,0 l/m 0,0 km/h (0 Bft) N 0,00 h 0,0 UV-I 0 W/m 8,7 C 9,7 C 0,0 km/h (0 Bft)
23.10.2019 00:00 24,2 C 9,9 C 61 % 94 % 1022,0 hPa 0,0 l/m 0,0 km/h (0 Bft) N 0,00 h 0,0 UV-I 0 W/m 9,0 C 9,9 C 0,2 km/h (0 Bft)
23.10.2019 01:00 24,3 C 12,0 C 62 % 96 % 1021,7 hPa 0,0 l/m 0,6 km/h (0 Bft) NO 0,00 h 0,0 UV-I 0 W/m 11,3 C 12,0 C 2,5 km/h (1 Bft)
23.10.2019 02:00 24,3 C 12,7 C 62 % 95 % 1021,3 hPa 0,0 l/m 0,2 km/h (0 Bft) O-NO 0,00 h 0,0 UV-I 0 W/m 11,9 C 12,7 C 1,1 km/h (0 Bft)
23.10.2019 03:00 24,3 C 12,4 C 62 % 94 % 1020,7 hPa 0,0 l/m 0,0 km/h (0 Bft) N 0,00 h 0,0 UV-I 0 W/m 11,5 C 12,4 C 0,0 km/h (0 Bft)
23.10.2019 04:00 24,3 C 12,1 C 62 % 94 % 1020,1 hPa 0,0 l/m 0,0 km/h (0 Bft) N 0,00 h 0,0 UV-I 0 W/m 11,2 C 12,1 C 0,0 km/h (0 Bft)
23.10.2019 05:00 24,3 C 11,3 C 62 % 93 % 1019,6 hPa 0,0 l/m 0,0 km/h (0 Bft) N 0,00 h 0,0 UV-I 0 W/m 10,2 C 11,3 C 0,0 km/h (0 Bft)
23.10.2019 06:00 24,3 C 10,3 C 62 % 93 % 1019,3 hPa 0,0 l/m 0,0 km/h (0 Bft) N 0,00 h 0,0 UV-I 0 W/m 9,2 C 10,3 C 0,0 km/h (0 Bft)
23.10.2019 07:00 24,2 C 10,5 C 61 % 95 % 1019,0 hPa 0,0 l/m 0,0 km/h (0 Bft) N 0,00 h 0,0 UV-I 5 W/m 9,7 C 10,5 C 0,0 km/h (0 Bft)
23.10.2019 08:00 24,1 C 11,0 C 61 % 95 % 1018,8 hPa 0,0 l/m 0,0 km/h (0 Bft) N 0,00 h 0,0 UV-I 13 W/m 10,3 C 11,0 C 0,1 km/h (0 Bft)
23.10.2019 09:00 24,1 C 11,7 C 61 % 96 % 1018,8 hPa 0,0 l/m 0,0 km/h (0 Bft) N 0,00 h 0,0 UV-I 26 W/m 11,1 C 11,7 C 0,0 km/h (0 Bft)
23.10.2019 10:00 24,1 C 12,8 C 61 % 96 % 1018,6 hPa 0,0 l/m 0,9 km/h (0 Bft) O-NO 0,00 h 0,5 UV-I 58 W/m 12,2 C 12,8 C 2,9 km/h (1 Bft)
23.10.2019 11:00 24,1 C 13,9 C 61 % 93 % 1018,3 hPa 0,0 l/m 3,7 km/h (1 Bft) O 0,00 h 0,7 UV-I 85 W/m 12,8 C 13,7 C 8,5 km/h (2 Bft)
23.10.2019 12:00 24,1 C 14,5 C 61 % 89 % 1017,6 hPa 0,0 l/m 3,0 km/h (1 Bft) O 0,00 h 0,9 UV-I 114 W/m 12,7 C 14,5 C 7,5 km/h (2 Bft)
23.10.2019 13:00 24,0 C 15,4 C 61 % 86 % 1017,0 hPa 0,0 l/m 3,0 km/h (1 Bft) O-NO 0,63 h 1,1 UV-I 179 W/m 13,0 C 15,3 C 8,0 km/h (2 Bft)
23.10.2019 14:00 24,0 C 16,3 C 61 % 82 % 1016,3 hPa 0,0 l/m 3,0 km/h (1 Bft) O 0,58 h 1,3 UV-I 178 W/m 13,2 C 16,2 C 7,0 km/h (2 Bft)
23.10.2019 15:00 23,9 C 17,1 C 59 % 79 % 1015,5 hPa 0,0 l/m 4,5 km/h (1 Bft) O-NO 1,00 h 1,1 UV-I 282 W/m 13,4 C 16,9 C 9,7 km/h (2 Bft)
23.10.2019 16:00 23,9 C 17,1 C 58 % 78 % 1015,1 hPa 0,0 l/m 3,3 km/h (1 Bft) O-NO 0,57 h 0,6 UV-I 161 W/m 13,3 C 17,0 C 7,8 km/h (2 Bft)
23.10.2019 17:00 23,8 C 15,8 C 56 % 81 % 1014,7 hPa 0,0 l/m 1,6 km/h (1 Bft) O-NO 0,00 h 0,0 UV-I 33 W/m 12,5 C 15,8 C 4,2 km/h (1 Bft)
23.10.2019 18:00 23,8 C 14,2 C 56 % 85 % 1014,7 hPa 0,0 l/m 0,1 km/h (0 Bft) NO 0,00 h 0,0 UV-I 0 W/m 11,7 C 14,2 C 0,6 km/h (0 Bft)
23.10.2019 19:00 23,8 C 12,9 C 57 % 88 % 1014,7 hPa 0,0 l/m 0,2 km/h (0 Bft) NO 0,00 h 0,0 UV-I 0 W/m 10,9 C 12,9 C 0,9 km/h (0 Bft)
23.10.2019 20:00 24,0 C 12,7 C 59 % 91 % 1014,4 hPa 0,0 l/m 0,5 km/h (0 Bft) NO 0,00 h 0,0 UV-I 0 W/m 11,3 C 12,7 C 2,2 km/h (1 Bft)
23.10.2019 21:00 24,1 C 11,8 C 59 % 89 % 1013,9 hPa 0,0 l/m 0,0 km/h (0 Bft) N-NO 0,00 h 0,0 UV-I 0 W/m 10,1 C 11,8 C 0,3 km/h (0 Bft)
23.10.2019 22:00 24,1 C 10,1 C 60 % 90 % 1013,5 hPa 0,0 l/m 0,1 km/h (0 Bft) O-NO 0,00 h 0,0 UV-I 0 W/m 8,6 C 10,1 C 0,8 km/h (0 Bft)
23.10.2019 23:00 24,2 C 9,6 C 60 % 93 % 1013,2 hPa 0,0 l/m 0,0 km/h (0 Bft) O-NO 0,00 h 0,0 UV-I 0 W/m 8,5 C 9,6 C 0,3 km/h (0 Bft)
24.10.2019 00:00 24,3 C 9,6 C 61 % 94 % 1012,9 hPa 0,0 l/m 0,1 km/h (0 Bft) O 0,00 h 0,0 UV-I 0 W/m 8,7 C 9,6 C 0,3 km/h (0 Bft)
24.10.2019 01:00 24,3 C 8,9 C 62 % 94 % 1012,4 hPa 0,0 l/m 0,0 km/h (0 Bft) N 0,00 h 0,0 UV-I 0 W/m 8,0 C 8,9 C 0,0 km/h (0 Bft)
24.10.2019 02:00 24,3 C 8,2 C 61 % 94 % 1012,0 hPa 0,0 l/m 0,2 km/h (0 Bft) NO 0,00 h 0,0 UV-I 0 W/m 7,4 C 8,2 C 0,8 km/h (0 Bft)
24.10.2019 03:00 24,3 C 8,5 C 61 % 95 % 1011,6 hPa 0,2 l/m 0,1 km/h (0 Bft) O-NO 0,00 h 0,0 UV-I 0 W/m 7,7 C 8,5 C 0,4 km/h (0 Bft)
24.10.2019 04:00 24,3 C 7,7 C 61 % 95 % 1011,4 hPa 0,0 l/m 0,0 km/h (0 Bft) N 0,00 h 0,0 UV-I 0 W/m 6,9 C 7,7 C 0,0 km/h (0 Bft)
24.10.2019 05:00 24,4 C 6,8 C 61 % 95 % 1010,9 hPa 0,0 l/m 0,0 km/h (0 Bft) O-NO 0,00 h 0,0 UV-I 0 W/m 6,1 C 6,8 C 0,3 km/h (0 Bft)
24.10.2019 06:00 24,3 C 6,7 C 61 % 95 % 1010,8 hPa 0,0 l/m 0,2 km/h (0 Bft) O-NO 0,00 h 0,0 UV-I 0 W/m 6,0 C 6,7 C 1,0 km/h (0 Bft)
24.10.2019 07:00 24,2 C 6,3 C 61 % 95 % 1010,7 hPa 0,0 l/m 0,0 km/h (0 Bft) N 0,00 h 0,0 UV-I 7 W/m 5,6 C 6,3 C 0,0 km/h (0 Bft)
24.10.2019 08:00 24,1 C 6,1 C 60 % 96 % 1011,0 hPa 0,0 l/m 0,0 km/h (0 Bft) N 0,00 h 0,0 UV-I 40 W/m 5,5 C 6,1 C 0,0 km/h (0 Bft)
24.10.2019 09:00 24,1 C 8,6 C 60 % 97 % 1011,3 hPa 0,0 l/m 0,0 km/h (0 Bft) N 0,25 h 0,6 UV-I 135 W/m 8,1 C 8,6 C 0,0 km/h (0 Bft)
24.10.2019 10:00 24,1 C 11,9 C 60 % 97 % 1010,9 hPa 0,0 l/m 0,0 km/h (0 Bft) N 0,98 h 1,0 UV-I 274 W/m 11,5 C 11,9 C 0,0 km/h (0 Bft)
24.10.2019 11:00 24,0 C 15,6 C 58 % 89 % 1010,5 hPa 0,0 l/m 1,5 km/h (1 Bft) W-SW 1,00 h 1,4 UV-I 277 W/m 13,6 C 15,6 C 2,9 km/h (1 Bft)
24.10.2019 12:00 24,0 C 15,8 C 58 % 86 % 1010,6 hPa 0,0 l/m 0,1 km/h (0 Bft) W-SW 1,00 h 1,7 UV-I 318 W/m 13,4 C 15,8 C 0,4 km/h (0 Bft)
24.10.2019 13:00 23,9 C 17,6 C 60 % 78 % 1010,9 hPa 0,0 l/m 3,3 km/h (1 Bft) W 1,00 h 1,9 UV-I 417 W/m 13,7 C 17,6 C 5,6 km/h (2 Bft)
24.10.2019 14:00 23,4 C 18,3 C 60 % 65 % 1010,8 hPa 0,0 l/m 5,1 km/h (1 Bft) S 1,00 h 1,6 UV-I 373 W/m 11,7 C 18,0 C 9,5 km/h (2 Bft)
24.10.2019 15:00 23,1 C 18,4 C 56 % 64 % 1010,5 hPa 0,0 l/m 6,1 km/h (2 Bft) S 0,97 h 1,1 UV-I 292 W/m 11,4 C 18,1 C 9,9 km/h (2 Bft)
24.10.2019 16:00 22,9 C 16,8 C 56 % 75 % 1010,9 hPa 0,2 l/m 5,4 km/h (1 Bft) S-SO 0,35 h 0,6 UV-I 139 W/m 12,2 C 16,5 C 9,5 km/h (2 Bft)
24.10.2019 17:00 23,0 C 14,4 C 56 % 82 % 1011,5 hPa 0,0 l/m 2,5 km/h (1 Bft) S 0,00 h 0,0 UV-I 27 W/m 11,3 C 14,3 C 6,2 km/h (2 Bft)
24.10.2019 18:00 23,6 C 12,5 C 56 % 89 % 1012,6 hPa 0,0 l/m 0,9 km/h (0 Bft) S-SO 0,00 h 0,0 UV-I 0 W/m 10,8 C 12,5 C 2,9 km/h (1 Bft)
24.10.2019 19:00 23,8 C 11,8 C 56 % 91 % 1013,5 hPa 0,0 l/m 1,5 km/h (1 Bft) W 0,00 h 0,0 UV-I 0 W/m 10,3 C 11,7 C 3,8 km/h (1 Bft)
24.10.2019 20:00 24,0 C 11,1 C 58 % 92 % 1013,8 hPa 0,0 l/m 0,0 km/h (0 Bft) N 0,00 h 0,0 UV-I 0 W/m 9,9 C 11,1 C 0,0 km/h (0 Bft)
24.10.2019 21:00 24,0 C 10,8 C 58 % 94 % 1014,1 hPa 0,0 l/m 0,0 km/h (0 Bft) N 0,00 h 0,0 UV-I 0 W/m 9,8 C 10,8 C 0,0 km/h (0 Bft)
24.10.2019 22:00 24,1 C 10,5 C 58 % 94 % 1014,9 hPa 0,0 l/m 0,1 km/h (0 Bft) S-SO 0,00 h 0,0 UV-I 0 W/m 9,7 C 10,5 C 0,3 km/h (0 Bft)
24.10.2019 23:00 24,2 C 10,3 C 59 % 95 % 1015,4 hPa 0,0 l/m 0,0 km/h (0 Bft) N 0,00 h 0,0 UV-I 0 W/m 9,6 C 10,3 C 0,3 km/h (0 Bft)
25.10.2019 00:00 24,3 C 10,2 C 60 % 95 % 1015,8 hPa 0,0 l/m 0,1 km/h (0 Bft) S 0,00 h 0,0 UV-I 0 W/m 9,5 C 10,2 C 0,8 km/h (0 Bft)
25.10.2019 01:00 24,3 C 10,2 C 61 % 96 % 1016,7 hPa 0,0 l/m 0,0 km/h (0 Bft) N 0,00 h 0,0 UV-I 0 W/m 9,6 C 10,2 C 0,0 km/h (0 Bft)
25.10.2019 02:00 24,3 C 10,5 C 61 % 96 % 1017,0 hPa 0,0 l/m 0,0 km/h (0 Bft) N 0,00 h 0,0 UV-I 0 W/m 9,9 C 10,5 C 0,0 km/h (0 Bft)
25.10.2019 03:00 24,3 C 10,7 C 61 % 96 % 1017,3 hPa 0,0 l/m 0,0 km/h (0 Bft) N 0,00 h 0,0 UV-I 0 W/m 10,1 C 10,7 C 0,0 km/h (0 Bft)
25.10.2019 04:00 24,3 C 10,8 C 61 % 96 % 1017,6 hPa 0,0 l/m 0,0 km/h (0 Bft) N 0,00 h 0,0 UV-I 0 W/m 10,2 C 10,8 C 0,0 km/h (0 Bft)
25.10.2019 05:00 24,2 C 10,8 C 61 % 96 % 1018,1 hPa 0,0 l/m 0,0 km/h (0 Bft) N 0,00 h 0,0 UV-I 0 W/m 10,2 C 10,8 C 0,1 km/h (0 Bft)
25.10.2019 06:00 24,2 C 10,7 C 61 % 96 % 1019,0 hPa 0,0 l/m 0,0 km/h (0 Bft) N 0,00 h 0,0 UV-I 0 W/m 10,1 C 10,7 C 0,0 km/h (0 Bft)
25.10.2019 07:00 24,2 C 10,7 C 61 % 96 % 1019,5 hPa 0,0 l/m 0,0 km/h (0 Bft) N 0,00 h 0,0 UV-I 5 W/m 10,1 C 10,7 C 0,0 km/h (0 Bft)
25.10.2019 08:00 24,1 C 10,6 C 60 % 97 % 1020,1 hPa 0,0 l/m 0,0 km/h (0 Bft) N 0,00 h 0,0 UV-I 17 W/m 10,1 C 10,6 C 0,0 km/h (0 Bft)
25.10.2019 09:00 24,1 C 10,9 C 61 % 97 % 1020,9 hPa 0,0 l/m 0,0 km/h (0 Bft) S-SO 0,33 h 0,6 UV-I 101 W/m 10,5 C 10,9 C 0,0 km/h (0 Bft)
25.10.2019 10:00 24,1 C 13,7 C 60 % 93 % 1021,6 hPa 0,0 l/m 4,5 km/h (1 Bft) S-SW 1,00 h 1,1 UV-I 301 W/m 12,5 C 13,6 C 8,5 km/h (2 Bft)
25.10.2019 11:00 24,1 C 15,5 C 59 % 80 % 1022,1 hPa 0,0 l/m 7,1 km/h (2 Bft) SW 0,97 h 1,4 UV-I 319 W/m 12,0 C 14,7 C 11,8 km/h (2 Bft)
25.10.2019 12:00 24,0 C 15,9 C 57 % 75 % 1022,4 hPa 0,0 l/m 8,5 km/h (2 Bft) SW 0,83 h 1,6 UV-I 324 W/m 11,5 C 14,7 C 14,5 km/h (3 Bft)
25.10.2019 13:00 23,9 C 15,3 C 56 % 71 % 1022,4 hPa 0,0 l/m 6,8 km/h (2 Bft) SW 0,47 h 1,5 UV-I 216 W/m 10,1 C 14,6 C 12,9 km/h (3 Bft)
25.10.2019 14:00 23,9 C 16,3 C 55 % 68 % 1022,1 hPa 0,0 l/m 4,8 km/h (1 Bft) SW 0,68 h 1,3 UV-I 267 W/m 10,3 C 16,0 C 9,6 km/h (2 Bft)
25.10.2019 15:00 23,9 C 15,7 C 55 % 70 % 1022,2 hPa 0,0 l/m 2,0 km/h (1 Bft) SW 0,28 h 0,7 UV-I 147 W/m 10,2 C 15,7 C 6,0 km/h (2 Bft)
25.10.2019 16:00 23,9 C 16,4 C 55 % 68 % 1022,2 hPa 0,0 l/m 3,3 km/h (1 Bft) S-SW 0,45 h 0,6 UV-I 131 W/m 10,5 C 16,3 C 7,1 km/h (2 Bft)
25.10.2019 17:00 23,9 C 15,3 C 55 % 72 % 1022,5 hPa 0,0 l/m 0,3 km/h (0 Bft) S-SW 0,00 h 0,0 UV-I 20 W/m 10,2 C 15,3 C 0,9 km/h (0 Bft)
25.10.2019 18:00 24,0 C 13,9 C 56 % 77 % 1022,7 hPa 0,0 l/m 0,0 km/h (0 Bft) N 0,00 h 0,0 UV-I 0 W/m 9,9 C 13,9 C 0,0 km/h (0 Bft)
25.10.2019 19:00 24,0 C 12,3 C 57 % 81 % 1023,1 hPa 0,0 l/m 0,0 km/h (0 Bft) N 0,00 h 0,0 UV-I 0 W/m 9,2 C 12,3 C 0,0 km/h (0 Bft)
25.10.2019 20:00 24,2 C 10,5 C 58 % 86 % 1023,3 hPa 0,0 l/m 0,0 km/h (0 Bft) N 0,00 h 0,0 UV-I 0 W/m 8,2 C 10,5 C 0,0 km/h (0 Bft)
25.10.2019 21:00 24,2 C 9,3 C 58 % 90 % 1023,4 hPa 0,0 l/m 0,0 km/h (0 Bft) N 0,00 h 0,0 UV-I 0 W/m 7,7 C 9,3 C 0,0 km/h (0 Bft)
25.10.2019 22:00 24,2 C 8,6 C 58 % 92 % 1023,3 hPa 0,0 l/m 0,0 km/h (0 Bft) N 0,00 h 0,0 UV-I 0 W/m 7,3 C 8,6 C 0,0 km/h (0 Bft)
25.10.2019 23:00 24,3 C 7,8 C 59 % 92 % 1022,9 hPa 0,0 l/m 0,0 km/h (0 Bft) N 0,00 h 0,0 UV-I 0 W/m 6,6 C 7,8 C 0,0 km/h (0 Bft)
26.10.2019 00:00 24,3 C 7,0 C 60 % 92 % 1022,8 hPa 0,0 l/m 0,0 km/h (0 Bft) N 0,00 h 0,0 UV-I 0 W/m 5,8 C 7,0 C 0,0 km/h (0 Bft)
26.10.2019 01:00 24,4 C 6,2 C 60 % 92 % 1022,7 hPa 0,0 l/m 0,0 km/h (0 Bft) N 0,00 h 0,0 UV-I 0 W/m 5,1 C 6,2 C 0,0 km/h (0 Bft)
26.10.2019 02:00 24,3 C 5,6 C 60 % 93 % 1022,5 hPa 0,0 l/m 0,0 km/h (0 Bft) N 0,00 h 0,0 UV-I 0 W/m 4,6 C 5,6 C 0,0 km/h (0 Bft)
26.10.2019 03:00 24,3 C 5,2 C 60 % 93 % 1022,2 hPa 0,0 l/m 0,0 km/h (0 Bft) N 0,00 h 0,0 UV-I 0 W/m 4,2 C 5,2 C 0,0 km/h (0 Bft)
26.10.2019 04:00 24,2 C 4,8 C 60 % 94 % 1021,7 hPa 0,0 l/m 0,0 km/h (0 Bft) N 0,00 h 0,0 UV-I 0 W/m 3,9 C 4,8 C 0,0 km/h (0 Bft)
26.10.2019 05:00 24,2 C 4,4 C 61 % 94 % 1021,6 hPa 0,0 l/m 0,0 km/h (0 Bft) N 0,00 h 0,0 UV-I 0 W/m 3,5 C 4,4 C 0,0 km/h (0 Bft)
26.10.2019 06:00 24,2 C 4,0 C 61 % 94 % 1021,6 hPa 0,0 l/m 0,0 km/h (0 Bft) N 0,00 h 0,0 UV-I 0 W/m 3,1 C 4,0 C 0,0 km/h (0 Bft)
26.10.2019 07:00 24,3 C 3,7 C 61 % 94 % 1021,7 hPa 0,0 l/m 0,0 km/h (0 Bft) N 0,00 h 0,0 UV-I 6 W/m 2,8 C 3,7 C 0,0 km/h (0 Bft)
26.10.2019 08:00 24,3 C 3,8 C 61 % 94 % 1022,1 hPa 0,0 l/m 0,0 km/h (0 Bft) N 0,00 h 0,0 UV-I 30 W/m 2,9 C 3,8 C 0,0 km/h (0 Bft)
26.10.2019 09:00 24,3 C 6,1 C 61 % 96 % 1022,4 hPa 0,0 l/m 0,0 km/h (0 Bft) N 0,13 h 0,5 UV-I 120 W/m 5,5 C 6,1 C 0,1 km/h (0 Bft)
26.10.2019 10:00 24,2 C 9,2 C 60 % 97 % 1022,1 hPa 0,0 l/m 0,3 km/h (0 Bft) NW 1,00 h 1,1 UV-I 287 W/m 8,7 C 9,2 C 0,4 km/h (0 Bft)
26.10.2019 11:00 24,2 C 12,5 C 60 % 91 % 1021,9 hPa 0,0 l/m 1,8 km/h (1 Bft) W-NW 1,00 h 1,8 UV-I 408 W/m 11,0 C 12,5 C 3,8 km/h (1 Bft)
26.10.2019 12:00 24,2 C 15,2 C 60 % 83 % 1021,5 hPa 0,0 l/m 4,4 km/h (1 Bft) S-SO 1,00 h 2,0 UV-I 384 W/m 12,3 C 14,9 C 7,1 km/h (2 Bft)
26.10.2019 13:00 24,2 C 16,2 C 59 % 80 % 1020,7 hPa 0,0 l/m 6,9 km/h (2 Bft) S-SO 1,00 h 1,8 UV-I 325 W/m 12,6 C 15,5 C 9,4 km/h (2 Bft)
26.10.2019 14:00 23,8 C 16,0 C 56 % 81 % 1020,0 hPa 0,0 l/m 7,9 km/h (2 Bft) SO 1,00 h 1,4 UV-I 311 W/m 12,8 C 15,0 C 12,5 km/h (2 Bft)
26.10.2019 15:00 23,8 C 16,2 C 56 % 80 % 1019,5 hPa 0,0 l/m 7,7 km/h (2 Bft) S-SO 0,88 h 1,0 UV-I 246 W/m 12,7 C 15,3 C 12,1 km/h (2 Bft)
26.10.2019 16:00 23,7 C 16,4 C 55 % 78 % 1019,4 hPa 0,0 l/m 3,1 km/h (1 Bft) SO 0,50 h 0,6 UV-I 149 W/m 12,5 C 16,3 C 6,6 km/h (2 Bft)
26.10.2019 17:00 23,4 C 14,8 C 56 % 82 % 1019,3 hPa 0,0 l/m 1,8 km/h (1 Bft) SO 0,00 h 0,0 UV-I 29 W/m 11,7 C 14,7 C 4,0 km/h (1 Bft)
26.10.2019 18:00 23,6 C 13,1 C 57 % 86 % 1019,6 hPa 0,0 l/m 0,1 km/h (0 Bft) S-SO 0,00 h 0,0 UV-I 0 W/m 10,8 C 13,1 C 0,5 km/h (0 Bft)
26.10.2019 19:00 23,7 C 12,1 C 58 % 88 % 1019,8 hPa 0,0 l/m 0,0 km/h (0 Bft) N 0,00 h 0,0 UV-I 0 W/m 10,1 C 12,1 C 0,0 km/h (0 Bft)
26.10.2019 20:00 23,8 C 10,9 C 59 % 91 % 1020,0 hPa 0,0 l/m 0,3 km/h (0 Bft) S-SO 0,00 h 0,0 UV-I 0 W/m 9,5 C 10,9 C 1,7 km/h (1 Bft)
26.10.2019 21:00 23,9 C 10,4 C 58 % 94 % 1020,1 hPa 0,0 l/m 0,3 km/h (0 Bft) S 0,00 h 0,0 UV-I 0 W/m 9,5 C 10,4 C 1,5 km/h (1 Bft)
26.10.2019 22:00 24,0 C 10,5 C 58 % 95 % 1019,9 hPa 0,0 l/m 0,1 km/h (0 Bft) S-SO 0,00 h 0,0 UV-I 0 W/m 9,7 C 10,5 C 0,4 km/h (0 Bft)
26.10.2019 23:00 24,1 C 10,7 C 58 % 95 % 1019,8 hPa 0,0 l/m 0,2 km/h (0 Bft) S-SW 0,00 h 0,0 UV-I 0 W/m 10,0 C 10,7 C 0,8 km/h (0 Bft)
27.10.2019 00:00 24,0 C 10,7 C 58 % 96 % 1019,7 hPa 0,0 l/m 0,3 km/h (0 Bft) S-SW 0,00 h 0,0 UV-I 0 W/m 10,1 C 10,7 C 1,9 km/h (1 Bft)
27.10.2019 01:00 23,9 C 10,6 C 58 % 96 % 1019,6 hPa 0,0 l/m 0,3 km/h (0 Bft) S-SO 0,00 h 0,0 UV-I 0 W/m 10,0 C 10,6 C 1,3 km/h (1 Bft)
27.10.2019 02:00 23,9 C 9,8 C 58 % 96 % 1018,8 hPa 0,0 l/m 0,3 km/h (0 Bft) S-SO 0,00 h 0,0 UV-I 0 W/m 9,2 C 9,8 C 1,3 km/h (1 Bft)
27.10.2019 03:00 23,9 C 9,4 C 58 % 96 % 1018,6 hPa 0,0 l/m 0,2 km/h (0 Bft) S 0,00 h 0,0 UV-I 0 W/m 8,8 C 9,4 C 1,5 km/h (1 Bft)
27.10.2019 04:00 23,9 C 9,0 C 58 % 96 % 1018,4 hPa 0,0 l/m 0,0 km/h (0 Bft) N 0,00 h 0,0 UV-I 0 W/m 8,4 C 9,0 C 0,0 km/h (0 Bft)
27.10.2019 05:00 23,8 C 8,5 C 57 % 96 % 1018,3 hPa 0,0 l/m 0,0 km/h (0 Bft) N 0,00 h 0,0 UV-I 0 W/m 7,9 C 8,5 C 0,0 km/h (0 Bft)
27.10.2019 06:00 23,8 C 7,5 C 57 % 96 % 1018,1 hPa 0,0 l/m 0,0 km/h (0 Bft) N 0,00 h 0,0 UV-I 9 W/m 6,8 C 7,5 C 0,0 km/h (0 Bft)
27.10.2019 07:00 23,8 C 6,7 C 56 % 95 % 1018,4 hPa 0,0 l/m 0,0 km/h (0 Bft) N 0,00 h 0,0 UV-I 51 W/m 6,0 C 6,7 C 0,0 km/h (0 Bft)
27.10.2019 08:00 23,8 C 8,8 C 55 % 97 % 1018,7 hPa 0,0 l/m 0,1 km/h (0 Bft) S-SO 0,07 h 0,6 UV-I 132 W/m 8,4 C 8,8 C 0,2 km/h (0 Bft)
27.10.2019 09:00 23,8 C 11,8 C 56 % 89 % 1018,6 hPa 0,0 l/m 6,3 km/h (2 Bft) S 0,93 h 1,1 UV-I 281 W/m 10,1 C 11,1 C 11,1 km/h (2 Bft)
27.10.2019 10:00 23,7 C 14,5 C 54 % 78 % 1018,8 hPa 0,0 l/m 2,8 km/h (1 Bft) S-SW 1,00 h 1,6 UV-I 341 W/m 10,7 C 14,4 C 6,8 km/h (2 Bft)
27.10.2019 11:00 23,4 C 16,1 C 52 % 75 % 1018,4 hPa 0,0 l/m 1,9 km/h (1 Bft) S-SO 1,00 h 1,7 UV-I 322 W/m 11,7 C 16,1 C 5,7 km/h (2 Bft)
27.10.2019 12:00 23,4 C 16,8 C 53 % 72 % 1017,9 hPa 0,0 l/m 7,8 km/h (2 Bft) SW 1,00 h 1,5 UV-I 267 W/m 11,7 C 15,6 C 14,7 km/h (3 Bft)
27.10.2019 13:00 23,5 C 17,2 C 53 % 70 % 1017,8 hPa 0,0 l/m 6,4 km/h (2 Bft) SW 0,97 h 1,2 UV-I 217 W/m 11,7 C 16,4 C 12,5 km/h (2 Bft)
27.10.2019 14:00 23,5 C 16,9 C 54 % 70 % 1017,5 hPa 0,0 l/m 5,4 km/h (2 Bft) SW 0,15 h 0,7 UV-I 128 W/m 11,4 C 16,3 C 11,7 km/h (2 Bft)
27.10.2019 15:00 23,5 C 16,3 C 54 % 72 % 1017,8 hPa 0,0 l/m 3,5 km/h (1 Bft) SW 0,00 h 0,0 UV-I 38 W/m 11,2 C 16,1 C 8,9 km/h (2 Bft)
27.10.2019 16:00 23,5 C 15,4 C 55 % 78 % 1018,0 hPa 0,0 l/m 4,1 km/h (1 Bft) W-SW 0,00 h 0,0 UV-I 10 W/m 11,5 C 15,0 C 9,5 km/h (2 Bft)
27.10.2019 17:00 23,5 C 14,3 C 55 % 83 % 1018,4 hPa 0,0 l/m 0,3 km/h (0 Bft) W 0,00 h 0,0 UV-I 0 W/m 11,5 C 14,3 C 1,6 km/h (1 Bft)
27.10.2019 18:00 23,6 C 13,6 C 55 % 86 % 1018,5 hPa 0,0 l/m 0,1 km/h (0 Bft) SW 0,00 h 0,0 UV-I 0 W/m 11,3 C 13,6 C 0,6 km/h (0 Bft)
27.10.2019 19:00 23,7 C 12,6 C 58 % 88 % 1019,0 hPa 0,2 l/m 1,6 km/h (1 Bft) N-NW 0,00 h 0,0 UV-I 0 W/m 10,7 C 12,6 C 4,5 km/h (1 Bft)
27.10.2019 20:00 23,8 C 10,5 C 59 % 90 % 1019,2 hPa 0,4 l/m 2,6 km/h (1 Bft) N-NW 0,00 h 0,0 UV-I 0 W/m 8,8 C 10,4 C 5,7 km/h (2 Bft)
27.10.2019 21:00 23,8 C 8,8 C 59 % 91 % 1019,7 hPa 0,4 l/m 5,1 km/h (1 Bft) N-NW 0,00 h 0,0 UV-I 0 W/m 7,3 C 8,3 C 10,5 km/h (2 Bft)
27.10.2019 22:00 24,0 C 7,2 C 60 % 91 % 1020,2 hPa 0,6 l/m 1,5 km/h (1 Bft) N-NW 0,00 h 0,0 UV-I 0 W/m 5,8 C 7,2 C 3,5 km/h (1 Bft)
27.10.2019 23:00 24,2 C 6,5 C 60 % 91 % 1020,2 hPa 0,8 l/m 1,0 km/h (0 Bft) N-NW 0,00 h 0,0 UV-I 0 W/m 5,1 C 6,5 C 2,1 km/h (1 Bft)
Min-Datum _ 24.10.19 21.10.19 21.10.19 24.10.19 24.10.19 - 21.10.19 - - - - 26.10.19 26.10.19 21.10.19
_ Min-Zeit 16:01 05:05 08:31 15:14 11:16 - 00:00 - - - - 07:41 07:41 00:00
Minimum _ 22,9 C 0,0 C 49 % 58 % 1010,2 hPa - 0,0 km/h (0 Bft) - - - - 2,7 C 3,6 C 0,0 km/h (0 Bft)
Max-Datum _ 21.10.19 21.10.19 22.10.19 22.10.19 22.10.19 27.10.19 26.10.19 - 26.10.19 24.10.19 25.10.19 22.10.19 21.10.19 27.10.19
_ Max-Zeit 01:38 15:58 03:02 09:56 11:38 23:02 14:43 - 13:29 13:21 11:44 12:18 15:58 12:43
Maximum _ 24,8 C 19,8 C 64 % 98 % 1023,8 hPa 0,8 l/m 17,7 km/h
SO (3 Bft)
- 0,08 h 2,3 UV-I 591 W/m 14,5 C 19,8 C 29,0 km/h
W-SW (5 Bft)
Durchschnitt _ 24,0 C 11,8 C 59 % 88 % 1018,6 hPa #2,8 l/m 1,2 km/h (1 Bft) SW #38:42 h 1,1 UV-I 78 W/m 9,8 C 11,7 C 2,5 km/h (1 Bft)